Time;durP1;ratioP1;P1;durP2;ratioP2;P2;SDS_P1;SDS_P2;PMS_P1;PMS_P2;Temp;Humidity;BMP_temperature;BMP_pressure;BME280_temperature;BME280_humidity;BME280_pressure;Samples;Min_cycle;Max_cycle;Signal;HPM_P1;HPM_P2
2022/03/25 00:02:26;;;;;;;0.22;0.22;;;;;;;;;;4983619;28;20591;-81
2022/03/25 00:04:52;;;;;;;0.15;0.15;;;;;;;;;;4983138;28;20490;-82
2022/03/25 00:07:18;;;;;;;0.00;0.00;;;;;;;;;;4984928;28;20560;-88
2022/03/25 00:09:44;;;;;;;0.25;0.25;;;;;;;;;;4986311;28;20041;-88
2022/03/25 00:12:10;;;;;;;0.25;0.25;;;;;;;;;;5002147;28;20030;-88
2022/03/25 00:14:37;;;;;;;0.10;0.10;;;;;;;;;;4984147;28;20038;-87
2022/03/25 00:17:03;;;;;;;0.00;0.00;;;;;;;;;;4982133;28;20034;-88
2022/03/25 00:19:29;;;;;;;0.10;0.10;;;;;;;;;;4982789;28;20041;-86
2022/03/25 00:21:55;;;;;;;0.87;0.87;;;;;;;;;;4982568;28;20069;-85
2022/03/25 00:24:23;;;;;;;0.10;0.10;;;;;;;;;;4996997;28;20161;-86
2022/03/25 00:26:49;;;;;;;0.40;0.40;;;;;;;;;;4981869;28;20382;-86
2022/03/25 00:29:15;;;;;;;0.00;0.00;;;;;;;;;;4982268;28;20784;-85
2022/03/25 00:31:42;;;;;;;0.10;0.10;;;;;;;;;;4980218;28;20035;-86
2022/03/25 00:34:09;;;;;;;0.10;0.10;;;;;;;;;;4982481;28;20034;-85
2022/03/25 00:36:35;;;;;;;0.28;0.28;;;;;;;;;;4984079;28;20502;-85
2022/03/25 00:39:01;;;;;;;0.23;0.23;;;;;;;;;;4982758;28;20038;-86
2022/03/25 00:41:27;;;;;;;0.00;0.00;;;;;;;;;;4983282;28;20880;-86
2022/03/25 00:43:53;;;;;;;0.00;0.00;;;;;;;;;;4982683;28;20133;-86
2022/03/25 00:46:19;;;;;;;0.00;0.00;;;;;;;;;;4982781;28;20035;-86
2022/03/25 00:54:25;;;;;;;0.38;0.38;;;;;;;;;;5993472;23;20009;-92
2022/03/25 00:56:52;;;;;;;1.92;0.82;;;;;;;;;;4983315;28;20514;-85
2022/03/25 00:59:18;;;;;;;0.28;0.28;;;;;;;;;;4980258;28;20034;-83
2022/03/25 01:01:44;;;;;;;0.10;0.10;;;;;;;;;;4977526;28;20038;-84
2022/03/25 01:04:10;;;;;;;0.35;0.35;;;;;;;;;;4979203;28;20085;-83
2022/03/25 01:06:37;;;;;;;0.25;0.25;;;;;;;;;;4978999;28;20057;-84
2022/03/25 01:09:04;;;;;;;0.08;0.08;;;;;;;;;;4982242;28;20030;-83
2022/03/25 01:11:30;;;;;;;;;;;;;;;;;;4979405;28;20140;-83
2022/03/25 01:13:58;;;;;;;0.00;0.00;;;;;;;;;;4977879;28;19913;-84
2022/03/25 01:16:25;;;;;;;0.10;0.10;;;;;;;;;;4978856;28;20587;-84
2022/03/25 01:18:51;;;;;;;0.10;0.10;;;;;;;;;;4980447;28;20486;-84
2022/03/25 01:21:17;;;;;;;0.80;0.70;;;;;;;;;;4972548;28;20035;-84
2022/03/25 01:23:44;;;;;;;0.28;0.28;;;;;;;;;;4970464;28;20042;-84
2022/03/25 01:26:10;;;;;;;0.38;0.38;;;;;;;;;;4977391;28;20030;-83
2022/03/25 01:28:36;;;;;;;0.20;0.20;;;;;;;;;;4975436;28;20077;-84
2022/03/25 01:31:03;;;;;;;0.13;0.13;;;;;;;;;;4982921;28;20034;-84
2022/03/25 01:33:29;;;;;;;0.10;0.10;;;;;;;;;;4983103;28;20668;-84
2022/03/25 01:35:56;;;;;;;0.65;0.65;;;;;;;;;;4975549;28;20069;-84
2022/03/25 01:38:22;;;;;;;0.53;0.53;;;;;;;;;;4980816;28;20042;-83
2022/03/25 01:40:48;;;;;;;0.10;0.10;;;;;;;;;;4978083;28;20085;-84
2022/03/25 01:43:14;;;;;;;0.30;0.30;;;;;;;;;;4981031;28;20033;-83
2022/03/25 01:45:40;;;;;;;0.47;0.47;;;;;;;;;;4983781;28;20038;-82
2022/03/25 01:48:11;;;;;;;0.43;0.43;;;;;;;;;;4969709;28;20031;-84
2022/03/25 01:50:38;;;;;;;0.47;0.47;;;;;;;;;;4976983;28;20026;-83
2022/03/25 01:53:04;;;;;;;;;;;;;;;;;;4980634;28;20034;-84
2022/03/25 01:55:36;;;;;;;0.68;0.65;;;;;;;;;;4972672;28;19925;-83
2022/03/25 01:58:03;;;;;;;0.28;0.28;;;;;;;;;;4980000;28;20042;-83
2022/03/25 02:00:29;;;;;;;;;;;;;;;;;;4968479;28;20027;-83
2022/03/25 02:02:55;;;;;;;0.43;0.30;;;;;;;;;;4995822;28;19914;-83
2022/03/25 02:05:21;;;;;;;0.20;0.20;;;;;;;;;;4977840;28;20296;-83
2022/03/25 02:07:48;;;;;;;0.10;0.10;;;;;;;;;;4973134;28;20566;-83
2022/03/25 02:10:15;;;;;;;0.20;0.20;;;;;;;;;;4976236;28;20026;-83
2022/03/25 02:12:41;;;;;;;;;;;;;;;;;;4978726;28;20552;-83
2022/03/25 02:15:08;;;;;;;0.20;0.20;;;;;;;;;;4976819;28;19949;-83
2022/03/25 02:17:34;;;;;;;0.95;0.63;;;;;;;;;;4978551;28;20038;-82
2022/03/25 02:20:00;;;;;;;0.63;0.50;;;;;;;;;;4971666;28;20574;-83
2022/03/25 02:22:26;;;;;;;0.25;0.25;;;;;;;;;;4982752;28;20026;-82
2022/03/25 02:24:52;;;;;;;0.75;0.63;;;;;;;;;;4971237;28;20081;-83
2022/03/25 02:27:18;;;;;;;0.93;0.93;;;;;;;;;;4969324;28;20415;-83
2022/03/25 02:29:45;;;;;;;0.22;0.22;;;;;;;;;;4980022;28;20580;-84
2022/03/25 02:32:11;;;;;;;0.00;0.00;;;;;;;;;;4976397;28;20039;-83
2022/03/25 02:34:38;;;;;;;0.40;0.40;;;;;;;;;;4979097;28;20046;-83
2022/03/25 02:37:04;;;;;;;0.22;0.22;;;;;;;;;;4977886;28;20442;-83
2022/03/25 02:39:30;;;;;;;0.47;0.47;;;;;;;;;;4978768;28;20084;-83
2022/03/25 02:41:57;;;;;;;0.10;0.10;;;;;;;;;;4981495;28;20431;-83
2022/03/25 02:44:23;;;;;;;0.43;0.43;;;;;;;;;;4980504;28;20422;-83
2022/03/25 02:46:49;;;;;;;0.10;0.10;;;;;;;;;;4977606;28;20062;-84
2022/03/25 02:49:15;;;;;;;0.30;0.30;;;;;;;;;;4981020;28;20089;-84
2022/03/25 02:51:41;;;;;;;0.32;0.32;;;;;;;;;;4972893;28;20507;-83
2022/03/25 02:54:08;;;;;;;0.10;0.10;;;;;;;;;;4978317;28;20026;-84
2022/03/25 02:56:34;;;;;;;0.10;0.10;;;;;;;;;;4971850;28;20113;-84
2022/03/25 02:59:00;;;;;;;0.10;0.10;;;;;;;;;;4970421;28;20042;-84
2022/03/25 03:01:27;;;;;;;0.30;0.30;;;;;;;;;;4983061;28;20084;-84
2022/03/25 03:03:53;;;;;;;1.25;0.40;;;;;;;;;;4985845;28;20117;-84
2022/03/25 03:06:19;;;;;;;0.30;0.30;;;;;;;;;;4982132;28;20026;-84
2022/03/25 03:08:45;;;;;;;0.47;0.47;;;;;;;;;;4983350;28;20035;-84
2022/03/25 03:11:12;;;;;;;0.07;0.07;;;;;;;;;;4982476;28;21065;-84
2022/03/25 03:13:38;;;;;;;;;;;;;;;;;;4983797;28;20117;-83
2022/03/25 03:16:05;;;;;;;1.25;0.82;;;;;;;;;;4973871;28;20048;-82
2022/03/25 03:18:32;;;;;;;0.05;0.05;;;;;;;;;;4978322;28;20545;-83
2022/03/25 03:20:59;;;;;;;0.57;0.57;;;;;;;;;;4984354;28;20034;-83
2022/03/25 03:23:25;;;;;;;0.10;0.10;;;;;;;;;;4980157;28;20506;-83
2022/03/25 03:25:51;;;;;;;0.30;0.30;;;;;;;;;;4984553;28;20731;-84
2022/03/25 03:28:17;;;;;;;0.75;0.75;;;;;;;;;;4985383;28;20285;-84
2022/03/25 03:30:43;;;;;;;1.17;0.40;;;;;;;;;;4986598;28;20061;-85
2022/03/25 03:33:09;;;;;;;0.67;0.30;;;;;;;;;;4980587;28;20149;-85
2022/03/25 03:35:35;;;;;;;1.80;0.22;;;;;;;;;;4983214;28;20110;-84
2022/03/25 03:38:02;;;;;;;1.23;0.55;;;;;;;;;;4978886;28;20049;-84
2022/03/25 03:40:28;;;;;;;0.20;0.20;;;;;;;;;;4979838;28;20045;-84
2022/03/25 03:42:54;;;;;;;0.40;0.38;;;;;;;;;;4986684;28;20129;-85
2022/03/25 03:45:21;;;;;;;0.20;0.20;;;;;;;;;;4978830;28;20030;-85
2022/03/25 03:47:47;;;;;;;0.10;0.10;;;;;;;;;;4980497;28;20100;-84
2022/03/25 03:50:14;;;;;;;0.53;0.53;;;;;;;;;;4981036;28;20028;-84
2022/03/25 03:52:40;;;;;;;0.15;0.15;;;;;;;;;;4983784;28;20109;-84
2022/03/25 03:55:07;;;;;;;5.45;1.85;;;;;;;;;;4984661;28;20058;-84
2022/03/25 03:57:35;;;;;;;0.22;0.22;;;;;;;;;;4982167;28;20077;-84
2022/03/25 04:00:01;;;;;;;0.22;0.22;;;;;;;;;;4981140;28;20038;-84
2022/03/25 04:02:27;;;;;;;0.20;0.20;;;;;;;;;;4979912;28;20037;-84
2022/03/25 04:04:53;;;;;;;1.00;0.57;;;;;;;;;;4979411;28;20045;-83
2022/03/25 04:07:19;;;;;;;0.40;0.40;;;;;;;;;;4983537;28;20568;-83
2022/03/25 04:09:46;;;;;;;0.25;0.25;;;;;;;;;;4981036;28;20110;-83
2022/03/25 04:12:13;;;;;;;0.13;0.13;;;;;;;;;;4978962;28;20038;-83
2022/03/25 04:14:39;;;;;;;;;;;;;;;;;;4978843;28;20038;-83
2022/03/25 04:17:05;;;;;;;0.10;0.10;;;;;;;;;;4975292;28;19936;-83
2022/03/25 04:19:31;;;;;;;0.28;0.28;;;;;;;;;;4973818;28;20590;-83
2022/03/25 04:21:57;;;;;;;0.40;0.40;;;;;;;;;;4979375;28;20113;-83
2022/03/25 04:24:23;;;;;;;0.65;0.65;;;;;;;;;;4982865;28;20113;-83
2022/03/25 04:26:49;;;;;;;0.30;0.30;;;;;;;;;;4974776;28;20050;-84
2022/03/25 04:29:15;;;;;;;0.63;0.63;;;;;;;;;;4978784;28;20045;-83
2022/03/25 04:31:41;;;;;;;0.10;0.10;;;;;;;;;;4969186;28;20110;-84
2022/03/25 04:34:07;;;;;;;0.10;0.10;;;;;;;;;;4975918;28;20089;-83
2022/03/25 04:36:34;;;;;;;0.20;0.20;;;;;;;;;;4979711;28;20038;-83
2022/03/25 04:39:00;;;;;;;0.65;0.65;;;;;;;;;;4976096;28;20042;-84
2022/03/25 04:41:26;;;;;;;0.30;0.30;;;;;;;;;;4981490;28;20041;-84
2022/03/25 04:43:52;;;;;;;0.40;0.40;;;;;;;;;;4982408;28;20156;-84
2022/03/25 04:46:18;;;;;;;0.75;0.75;;;;;;;;;;4983435;28;20035;-84
2022/03/25 04:48:44;;;;;;;0.03;0.03;;;;;;;;;;4977725;28;20026;-84
2022/03/25 04:51:11;;;;;;;0.68;0.68;;;;;;;;;;4979470;28;20038;-83
2022/03/25 04:53:38;;;;;;;0.30;0.30;;;;;;;;;;4982038;28;20501;-83
2022/03/25 04:56:04;;;;;;;0.30;0.30;;;;;;;;;;4979929;28;20145;-85
2022/03/25 04:58:30;;;;;;;0.10;0.10;;;;;;;;;;4978388;28;20778;-83
2022/03/25 05:00:57;;;;;;;0.30;0.30;;;;;;;;;;4976638;28;20037;-84
2022/03/25 05:03:23;;;;;;;0.10;0.10;;;;;;;;;;4982858;28;20045;-82
2022/03/25 05:05:49;;;;;;;0.50;0.50;;;;;;;;;;4970720;28;20027;-83
2022/03/25 05:08:16;;;;;;;0.52;0.52;;;;;;;;;;4972366;28;20081;-83
2022/03/25 05:10:42;;;;;;;0.10;0.10;;;;;;;;;;4974462;28;20039;-84
2022/03/25 05:13:11;;;;;;;0.30;0.30;;;;;;;;;;4979609;28;20629;-83
2022/03/25 05:15:37;;;;;;;0.15;0.15;;;;;;;;;;4976172;28;20034;-84
2022/03/25 05:18:04;;;;;;;0.67;0.67;;;;;;;;;;4971515;28;20047;-83
2022/03/25 05:20:30;;;;;;;0.10;0.10;;;;;;;;;;4972042;28;20037;-84
2022/03/25 05:22:56;;;;;;;0.60;0.60;;;;;;;;;;4978993;28;20030;-83
2022/03/25 05:25:22;;;;;;;0.53;0.53;;;;;;;;;;4974941;28;20081;-83
2022/03/25 05:27:55;;;;;;;1.15;1.08;;;;;;;;;;4982783;28;20108;-84
2022/03/25 05:30:25;;;;;;;0.88;0.35;;;;;;;;;;4974013;28;20052;-84
2022/03/25 05:32:51;;;;;;;0.85;0.68;;;;;;;;;;4979783;28;20038;-82
2022/03/25 05:35:17;;;;;;;1.42;1.10;;;;;;;;;;4975681;28;20880;-82
2022/03/25 05:37:43;;;;;;;3.63;0.98;;;;;;;;;;4978667;28;20089;-81
2022/03/25 05:40:10;;;;;;;0.43;0.43;;;;;;;;;;4979687;28;20086;-81
2022/03/25 05:42:37;;;;;;;0.13;0.13;;;;;;;;;;4974348;28;20117;-82
2022/03/25 05:45:04;;;;;;;0.30;0.30;;;;;;;;;;4973071;28;20047;-83
2022/03/25 05:47:30;;;;;;;0.30;0.30;;;;;;;;;;4973567;28;20027;-85
2022/03/25 05:49:57;;;;;;;0.10;0.10;;;;;;;;;;4979457;28;20058;-86
2022/03/25 05:52:23;;;;;;;0.28;0.28;;;;;;;;;;4977918;28;20671;-87
2022/03/25 05:54:49;;;;;;;0.77;0.30;;;;;;;;;;4974484;28;20054;-85
2022/03/25 05:57:16;;;;;;;0.10;0.10;;;;;;;;;;4979154;28;20069;-86
2022/03/25 05:59:43;;;;;;;0.10;0.10;;;;;;;;;;4979932;28;20382;-86
2022/03/25 06:02:09;;;;;;;0.15;0.15;;;;;;;;;;4977482;28;20042;-86
2022/03/25 06:04:35;;;;;;;0.30;0.20;;;;;;;;;;4975843;28;20051;-87
2022/03/25 06:07:01;;;;;;;0.43;0.43;;;;;;;;;;4977090;28;20045;-85
2022/03/25 06:09:27;;;;;;;0.10;0.10;;;;;;;;;;4981462;28;20030;-86
2022/03/25 06:11:53;;;;;;;0.97;0.87;;;;;;;;;;4980114;28;20030;-85
2022/03/25 06:14:19;;;;;;;0.82;0.82;;;;;;;;;;4981272;28;20094;-86
2022/03/25 06:16:46;;;;;;;0.30;0.30;;;;;;;;;;4980328;28;20201;-85
2022/03/25 06:19:13;;;;;;;0.05;0.05;;;;;;;;;;4974381;28;20034;-84
2022/03/25 06:21:39;;;;;;;0.30;0.30;;;;;;;;;;4973851;28;20046;-86
2022/03/25 06:24:05;;;;;;;0.30;0.30;;;;;;;;;;4971058;28;20122;-86
2022/03/25 06:26:31;;;;;;;0.20;0.20;;;;;;;;;;4969473;28;20739;-86
2022/03/25 06:28:58;;;;;;;0.70;0.70;;;;;;;;;;4976336;28;20037;-84
2022/03/25 06:31:23;;;;;;;0.00;0.00;;;;;;;;;;4969196;28;20505;-83
2022/03/25 06:33:49;;;;;;;0.40;0.38;;;;;;;;;;4972290;28;20030;-81
2022/03/25 06:36:15;;;;;;;0.30;0.30;;;;;;;;;;4979644;28;20038;-81
2022/03/25 06:38:42;;;;;;;0.17;0.17;;;;;;;;;;4976059;28;20030;-81
2022/03/25 06:41:08;;;;;;;0.00;0.00;;;;;;;;;;4979754;28;20408;-82
2022/03/25 06:43:34;;;;;;;1.15;0.65;;;;;;;;;;4969681;28;20030;-82
2022/03/25 06:46:00;;;;;;;0.25;0.25;;;;;;;;;;4969512;28;20148;-81
2022/03/25 06:48:27;;;;;;;0.08;0.08;;;;;;;;;;4967266;28;20840;-81
2022/03/25 06:50:53;;;;;;;0.38;0.10;;;;;;;;;;4979316;28;20026;-81
2022/03/25 06:53:19;;;;;;;0.10;0.10;;;;;;;;;;4975582;28;20088;-81
2022/03/25 06:55:45;;;;;;;1.60;0.70;;;;;;;;;;4967837;28;20046;-81
2022/03/25 06:58:12;;;;;;;0.20;0.20;;;;;;;;;;4977199;28;20085;-81
2022/03/25 07:00:39;;;;;;;0.37;0.37;;;;;;;;;;4979203;28;20030;-81
2022/03/25 07:03:05;;;;;;;;;;;;;;;;;;4974762;28;20293;-81
2022/03/25 07:05:31;;;;;;;0.10;0.10;;;;;;;;;;4974266;28;20440;-80
2022/03/25 07:07:58;;;;;;;0.50;0.50;;;;;;;;;;4971801;28;20035;-79
2022/03/25 07:10:26;;;;;;;0.15;0.15;;;;;;;;;;4978928;28;20031;-80
2022/03/25 07:12:52;;;;;;;0.20;0.20;;;;;;;;;;4967931;28;20626;-79
2022/03/25 07:15:20;;;;;;;0.65;0.57;;;;;;;;;;4978408;28;20152;-79
2022/03/25 07:17:46;;;;;;;0.25;0.25;;;;;;;;;;4973777;28;20427;-81
2022/03/25 07:20:13;;;;;;;1.70;0.50;;;;;;;;;;4975512;28;20945;-80
2022/03/25 07:22:39;;;;;;;0.30;0.30;;;;;;;;;;4973071;28;20034;-81
2022/03/25 07:25:05;;;;;;;0.10;0.10;;;;;;;;;;4970557;28;20031;-81
2022/03/25 07:27:31;;;;;;;0.80;0.80;;;;;;;;;;4969592;28;20038;-81
2022/03/25 07:29:57;;;;;;;0.20;0.20;;;;;;;;;;4979421;28;20046;-81
2022/03/25 07:32:24;;;;;;;0.40;0.40;;;;;;;;;;4973969;28;20081;-81
2022/03/25 07:34:50;;;;;;;0.43;0.43;;;;;;;;;;4968073;28;20034;-81
2022/03/25 07:37:16;;;;;;;5.00;0.90;;;;;;;;;;4979361;28;20038;-81
2022/03/25 07:39:42;;;;;;;0.98;0.85;;;;;;;;;;4975288;28;20034;-81
2022/03/25 07:42:08;;;;;;;0.55;0.55;;;;;;;;;;4980582;28;20034;-81
2022/03/25 07:44:35;;;;;;;0.30;0.25;;;;;;;;;;4974637;28;20035;-83
2022/03/25 07:47:01;;;;;;;;;;;;;;;;;;4980542;28;20737;-81
2022/03/25 07:49:27;;;;;;;0.63;0.57;;;;;;;;;;4985935;28;19914;-81
2022/03/25 07:51:53;;;;;;;0.63;0.63;;;;;;;;;;4979078;28;20056;-81
2022/03/25 07:54:19;;;;;;;0.50;0.40;;;;;;;;;;4984774;28;20046;-81
2022/03/25 07:56:45;;;;;;;0.43;0.43;;;;;;;;;;4975512;28;20070;-81
2022/03/25 07:59:11;;;;;;;0.37;0.37;;;;;;;;;;4972200;28;20488;-81
2022/03/25 08:01:38;;;;;;;0.85;0.45;;;;;;;;;;4981081;28;20309;-81
2022/03/25 08:04:04;;;;;;;0.10;0.10;;;;;;;;;;4984146;28;20712;-80
2022/03/25 08:06:30;;;;;;;0.15;0.15;;;;;;;;;;4985694;28;20750;-81
2022/03/25 08:08:59;;;;;;;0.50;0.50;;;;;;;;;;4983664;28;20104;-81
2022/03/25 08:11:25;;;;;;;0.52;0.38;;;;;;;;;;4983598;28;20269;-80
2022/03/25 08:13:51;;;;;;;3.97;0.60;;;;;;;;;;4984029;28;20069;-80
2022/03/25 08:16:17;;;;;;;0.40;0.38;;;;;;;;;;4983563;28;20364;-80
2022/03/25 08:18:43;;;;;;;0.65;0.65;;;;;;;;;;4986794;28;20038;-81
2022/03/25 08:21:11;;;;;;;0.35;0.35;;;;;;;;;;4984656;28;20062;-81
2022/03/25 08:29:06;;;;;;;0.80;0.80;;;;;;;;;;4983418;28;20149;-81
2022/03/25 08:31:34;;;;;;;0.08;0.08;;;;;;;;;;4983309;28;20050;-81
2022/03/25 08:34:01;;;;;;;0.50;0.50;;;;;;;;;;4983690;28;20284;-81
2022/03/25 08:36:27;;;;;;;;;;;;;;;;;;4984867;28;20570;-81
2022/03/25 08:38:53;;;;;;;0.40;0.35;;;;;;;;;;4988903;28;19910;-81
2022/03/25 08:41:19;;;;;;;0.80;0.80;;;;;;;;;;4985704;28;20045;-81
2022/03/25 08:43:47;;;;;;;0.30;0.30;;;;;;;;;;4983083;28;20445;-81
2022/03/25 08:46:13;;;;;;;0.77;0.75;;;;;;;;;;4983143;28;20034;-80
2022/03/25 08:48:39;;;;;;;0.80;0.35;;;;;;;;;;4985735;28;20447;-80
2022/03/25 08:51:06;;;;;;;0.63;0.52;;;;;;;;;;4982611;28;20040;-81
2022/03/25 08:53:33;;;;;;;0.35;0.35;;;;;;;;;;4982857;28;20549;-80
2022/03/25 08:55:59;;;;;;;0.32;0.32;;;;;;;;;;4982740;28;20109;-81
2022/03/25 08:58:25;;;;;;;0.20;0.10;;;;;;;;;;4982226;28;20030;-81
2022/03/25 09:00:51;;;;;;;0.35;0.35;;;;;;;;;;4985392;28;20023;-81
2022/03/25 09:03:18;;;;;;;0.60;0.60;;;;;;;;;;4985561;28;20030;-81
2022/03/25 09:05:44;;;;;;;0.13;0.13;;;;;;;;;;4982524;28;20099;-80
2022/03/25 09:08:10;;;;;;;0.38;0.38;;;;;;;;;;4985207;28;20042;-81
2022/03/25 09:10:36;;;;;;;0.75;0.63;;;;;;;;;;4982907;28;20423;-81
2022/03/25 09:13:02;;;;;;;0.60;0.60;;;;;;;;;;4984681;28;20133;-81
2022/03/25 09:15:28;;;;;;;0.38;0.38;;;;;;;;;;4983709;28;20030;-81
2022/03/25 09:17:54;;;;;;;0.28;0.28;;;;;;;;;;4981917;28;20031;-80
2022/03/25 09:20:20;;;;;;;0.30;0.30;;;;;;;;;;4983310;28;20062;-81
2022/03/25 09:22:46;;;;;;;0.45;0.45;;;;;;;;;;4982242;28;20022;-80
2022/03/25 09:25:13;;;;;;;0.43;0.28;;;;;;;;;;4982521;28;20045;-81
2022/03/25 09:27:40;;;;;;;0.70;0.70;;;;;;;;;;4985350;28;20034;-81
2022/03/25 09:30:06;;;;;;;;;;;;;;;;;;4981965;28;20057;-81
2022/03/25 09:32:32;;;;;;;0.00;0.00;;;;;;;;;;4984504;28;20481;-80
2022/03/25 09:35:10;;;;;;;0.75;0.55;;;;;;;;;;4983883;28;20855;-80
2022/03/25 09:37:39;;;;;;;0.13;0.13;;;;;;;;;;4981854;28;20102;-80
2022/03/25 09:40:12;;;;;;;1.63;0.68;;;;;;;;;;4983048;28;20030;-81
2022/03/25 09:42:39;;;;;;;0.32;0.32;;;;;;;;;;4984432;28;20090;-81
2022/03/25 09:45:05;;;;;;;0.35;0.30;;;;;;;;;;4981432;28;20117;-81
2022/03/25 09:47:32;;;;;;;0.50;0.50;;;;;;;;;;4982725;28;20038;-81
2022/03/25 09:49:58;;;;;;;1.70;0.88;;;;;;;;;;4982810;28;20388;-81
2022/03/25 09:52:26;;;;;;;1.45;0.57;;;;;;;;;;4983734;28;20034;-81
2022/03/25 09:54:52;;;;;;;1.50;1.25;;;;;;;;;;4979129;28;20137;-81
2022/03/25 09:57:19;;;;;;;0.13;0.13;;;;;;;;;;4980950;28;20207;-80
2022/03/25 09:59:45;;;;;;;0.52;0.52;;;;;;;;;;4981595;28;20062;-81
2022/03/25 10:02:11;;;;;;;0.47;0.47;;;;;;;;;;4981144;28;20030;-81
2022/03/25 10:04:40;;;;;;;0.43;0.43;;;;;;;;;;4981815;28;20196;-81
2022/03/25 10:07:20;;;;;;;2.20;0.47;;;;;;;;;;4981255;28;20422;-81
2022/03/25 10:09:58;;;;;;;0.50;0.50;;;;;;;;;;4979730;28;20053;-81
2022/03/25 10:12:27;;;;;;;4.15;1.65;;;;;;;;;;4983606;28;20038;-81
2022/03/25 10:15:12;;;;;;;0.90;0.45;;;;;;;;;;4981989;28;20034;-81
2022/03/25 10:17:46;;;;;;;0.10;0.10;;;;;;;;;;4981002;28;20041;-81
2022/03/25 10:20:12;;;;;;;0.40;0.20;;;;;;;;;;4978909;28;20027;-81
2022/03/25 10:22:38;;;;;;;1.08;0.47;;;;;;;;;;4968811;28;20038;-81
2022/03/25 10:25:09;;;;;;;0.20;0.20;;;;;;;;;;4982607;28;20122;-81
2022/03/25 10:27:35;;;;;;;0.55;0.38;;;;;;;;;;4983146;28;20054;-81
2022/03/25 10:30:03;;;;;;;;;;;;;;;;;;4981337;28;20049;-81
2022/03/25 10:32:29;;;;;;;0.43;0.43;;;;;;;;;;4980867;28;19944;-81
2022/03/25 10:35:03;;;;;;;0.20;0.20;;;;;;;;;;4981104;28;20038;-80
2022/03/25 10:37:29;;;;;;;0.88;0.88;;;;;;;;;;4980999;28;20030;-81
2022/03/25 10:39:55;;;;;;;0.43;0.43;;;;;;;;;;4983135;28;20023;-81
2022/03/25 10:42:21;;;;;;;0.63;0.63;;;;;;;;;;4980053;28;20037;-80
2022/03/25 10:44:47;;;;;;;3.33;3.05;;;;;;;;;;4980887;28;20034;-81
2022/03/25 10:47:16;;;;;;;1.52;1.27;;;;;;;;;;4980521;28;20030;-81
2022/03/25 10:49:43;;;;;;;0.90;0.70;;;;;;;;;;4980718;28;20030;-82
2022/03/25 10:52:34;;;;;;;0.52;0.20;;;;;;;;;;4982235;28;20030;-81
2022/03/25 10:55:20;;;;;;;0.38;0.32;;;;;;;;;;4980663;28;20065;-81
2022/03/25 10:57:48;;;;;;;0.57;0.47;;;;;;;;;;4984062;28;20034;-82
2022/03/25 11:00:15;;;;;;;0.75;0.43;;;;;;;;;;4982252;28;20392;-82
2022/03/25 11:02:42;;;;;;;0.13;0.13;;;;;;;;;;4980949;28;20180;-81
2022/03/25 11:05:11;;;;;;;0.50;0.50;;;;;;;;;;4981667;28;20034;-81
2022/03/25 11:07:38;;;;;;;0.13;0.13;;;;;;;;;;4980634;28;20057;-81
2022/03/25 11:10:04;;;;;;;13.93;2.65;;;;;;;;;;4981929;28;20139;-81
2022/03/25 11:12:33;;;;;;;1.48;0.93;;;;;;;;;;4982441;28;20039;-81
2022/03/25 11:15:00;;;;;;;0.38;0.25;;;;;;;;;;4979889;28;20093;-81
2022/03/25 11:17:27;;;;;;;3.13;0.88;;;;;;;;;;4980194;28;20026;-81
2022/03/25 11:19:55;;;;;;;0.20;0.20;;;;;;;;;;4980377;28;20046;-81
2022/03/25 11:22:21;;;;;;;1.38;1.25;;;;;;;;;;4983991;28;20029;-81
2022/03/25 11:24:49;;;;;;;5.70;0.82;;;;;;;;;;4987028;28;20952;-81
2022/03/25 11:27:32;;;;;;;0.45;0.45;;;;;;;;;;4985785;28;20818;-80
2022/03/25 11:30:03;;;;;;;0.30;0.30;;;;;;;;;;4984016;28;20034;-81
2022/03/25 11:32:30;;;;;;;5.25;0.95;;;;;;;;;;4983863;28;20050;-81
2022/03/25 11:34:57;;;;;;;0.93;0.85;;;;;;;;;;4984164;28;20041;-81
2022/03/25 11:37:24;;;;;;;0.10;0.10;;;;;;;;;;4984292;28;20073;-81
2022/03/25 11:40:08;;;;;;;0.65;0.20;;;;;;;;;;4986949;28;20042;-81
2022/03/25 11:42:44;;;;;;;0.30;0.22;;;;;;;;;;4986276;28;20145;-81
2022/03/25 11:45:32;;;;;;;0.22;0.15;;;;;;;;;;4983022;28;20034;-81
2022/03/25 11:48:04;;;;;;;1.25;0.98;;;;;;;;;;4985058;28;20077;-81
2022/03/25 11:50:31;;;;;;;0.63;0.57;;;;;;;;;;4985125;28;20777;-80
2022/03/25 11:52:58;;;;;;;0.38;0.38;;;;;;;;;;4983016;28;20057;-81
2022/03/25 11:55:24;;;;;;;0.35;0.35;;;;;;;;;;4983003;28;20051;-81
2022/03/25 11:57:50;;;;;;;0.35;0.35;;;;;;;;;;4984966;28;20030;-82
2022/03/25 12:00:28;;;;;;;0.57;0.57;;;;;;;;;;4983900;28;20034;-81
2022/03/25 12:03:04;;;;;;;0.63;0.32;;;;;;;;;;4984811;28;20034;-81
2022/03/25 12:05:32;;;;;;;1.50;1.00;;;;;;;;;;4984521;28;20030;-81
2022/03/25 12:08:16;;;;;;;0.95;0.73;;;;;;;;;;4983708;28;20133;-81
2022/03/25 12:10:46;;;;;;;0.90;0.90;;;;;;;;;;4998483;28;20038;-81
2022/03/25 12:13:12;;;;;;;0.40;0.40;;;;;;;;;;4984912;28;20023;-81
2022/03/25 12:15:42;;;;;;;0.65;0.40;;;;;;;;;;4971266;28;20133;-80
2022/03/25 12:18:27;;;;;;;0.40;0.40;;;;;;;;;;4984466;28;20037;-80
2022/03/25 12:20:53;;;;;;;1.15;0.95;;;;;;;;;;4983318;28;20129;-81
2022/03/25 12:23:19;;;;;;;1.60;1.33;;;;;;;;;;4983326;28;20250;-81
2022/03/25 12:25:45;;;;;;;0.40;0.35;;;;;;;;;;4983400;28;20340;-81
2022/03/25 12:28:11;;;;;;;1.85;0.47;;;;;;;;;;4983385;28;20042;-81
2022/03/25 12:30:37;;;;;;;0.10;0.10;;;;;;;;;;4985568;28;20038;-81
2022/03/25 12:33:06;;;;;;;1.73;0.47;;;;;;;;;;4982807;28;20042;-82
2022/03/25 12:35:33;;;;;;;0.20;0.20;;;;;;;;;;4982090;28;20030;-81
2022/03/25 12:38:06;;;;;;;0.65;0.65;;;;;;;;;;4983565;28;20129;-82
2022/03/25 12:40:35;;;;;;;0.45;0.28;;;;;;;;;;4982125;28;20431;-81
2022/03/25 12:43:05;;;;;;;2.13;0.90;;;;;;;;;;4984655;28;20030;-81
2022/03/25 12:45:45;;;;;;;0.43;0.40;;;;;;;;;;4985566;28;20125;-81
2022/03/25 12:48:15;;;;;;;0.60;0.45;;;;;;;;;;4978730;28;20038;-81
2022/03/25 12:50:45;;;;;;;0.25;0.25;;;;;;;;;;4981938;28;20373;-81
2022/03/25 12:53:11;;;;;;;1.00;0.98;;;;;;;;;;4981433;28;20093;-82
2022/03/25 12:55:38;;;;;;;1.52;1.00;;;;;;;;;;4983965;28;20046;-81
2022/03/25 12:58:11;;;;;;;0.52;0.52;;;;;;;;;;4984328;28;20038;-81
2022/03/25 13:00:38;;;;;;;0.68;0.68;;;;;;;;;;4985177;28;20034;-82
2022/03/25 13:03:05;;;;;;;0.50;0.50;;;;;;;;;;4981885;28;20030;-82
2022/03/25 13:05:32;;;;;;;0.77;0.77;;;;;;;;;;4982244;28;20117;-81
2022/03/25 13:07:59;;;;;;;1.30;0.90;;;;;;;;;;4981050;28;20073;-82
2022/03/25 13:10:25;;;;;;;0.20;0.20;;;;;;;;;;4980744;28;20739;-81
2022/03/25 13:12:54;;;;;;;;;;;;;;;;;;4984606;28;20503;-82
2022/03/25 13:15:25;;;;;;;1.52;0.73;;;;;;;;;;4983119;28;19917;-81
2022/03/25 13:17:52;;;;;;;0.15;0.15;;;;;;;;;;4982021;28;20110;-81
2022/03/25 13:20:18;;;;;;;0.80;0.75;;;;;;;;;;4981531;28;20473;-81
2022/03/25 13:23:05;;;;;;;0.32;0.32;;;;;;;;;;4981840;28;20034;-81
2022/03/25 13:25:34;;;;;;;0.35;0.35;;;;;;;;;;4983202;28;20785;-82
2022/03/25 13:28:01;;;;;;;0.10;0.10;;;;;;;;;;4983213;28;20111;-81
2022/03/25 13:30:28;;;;;;;0.20;0.20;;;;;;;;;;4983845;28;20019;-81
2022/03/25 13:33:01;;;;;;;1.92;1.05;;;;;;;;;;4982159;28;20026;-81
2022/03/25 13:35:31;;;;;;;0.80;0.65;;;;;;;;;;4981936;28;20057;-81
2022/03/25 13:37:58;;;;;;;0.28;0.28;;;;;;;;;;4982011;28;20053;-81
2022/03/25 13:40:43;;;;;;;0.47;0.47;;;;;;;;;;4982236;28;20429;-82
2022/03/25 13:43:12;;;;;;;0.57;0.30;;;;;;;;;;4982533;28;20053;-81
2022/03/25 13:45:38;;;;;;;2.30;0.98;;;;;;;;;;4983779;28;20037;-81
2022/03/25 13:48:04;;;;;;;0.25;0.20;;;;;;;;;;4981839;28;20040;-81
2022/03/25 13:50:31;;;;;;;0.38;0.38;;;;;;;;;;4981753;28;20574;-81
2022/03/25 13:53:09;;;;;;;0.98;0.93;;;;;;;;;;4981463;28;20038;-81
2022/03/25 13:55:36;;;;;;;1.70;0.22;;;;;;;;;;4979610;28;20069;-81
2022/03/25 13:58:03;;;;;;;0.10;0.10;;;;;;;;;;4982851;28;20034;-81
2022/03/25 14:00:30;;;;;;;0.57;0.20;;;;;;;;;;4982756;28;20033;-81
2022/03/25 14:02:56;;;;;;;2.75;1.25;;;;;;;;;;4981333;28;20061;-81
2022/03/25 14:05:26;;;;;;;0.20;0.20;;;;;;;;;;4981464;28;20042;-81
2022/03/25 14:07:57;;;;;;;0.60;0.60;;;;;;;;;;4981326;28;20495;-81
2022/03/25 14:10:24;;;;;;;0.30;0.30;;;;;;;;;;4982843;28;20739;-81
2022/03/25 14:12:50;;;;;;;;;;;;;;;;;;4985127;28;20030;-81
2022/03/25 14:15:17;;;;;;;0.45;0.35;;;;;;;;;;4981651;28;20714;-81
2022/03/25 14:17:43;;;;;;;0.57;0.57;;;;;;;;;;4981327;28;20511;-81
2022/03/25 14:20:15;;;;;;;0.20;0.20;;;;;;;;;;4980468;28;20058;-81
2022/03/25 14:22:42;;;;;;;0.50;0.50;;;;;;;;;;4981199;28;20844;-82
2022/03/25 14:25:11;;;;;;;0.20;0.20;;;;;;;;;;4982134;28;20629;-81
2022/03/25 14:27:37;;;;;;;0.30;0.30;;;;;;;;;;4983323;28;20052;-82
2022/03/25 14:30:03;;;;;;;1.13;0.50;;;;;;;;;;4982037;28;20031;-82
2022/03/25 14:32:29;;;;;;;0.73;0.73;;;;;;;;;;4981115;28;20077;-81
2022/03/25 14:34:56;;;;;;;0.35;0.35;;;;;;;;;;4981906;28;20518;-81
2022/03/25 14:37:23;;;;;;;0.30;0.30;;;;;;;;;;4980810;28;20073;-81
2022/03/25 14:39:51;;;;;;;0.10;0.10;;;;;;;;;;4983513;28;20125;-81
2022/03/25 14:42:17;;;;;;;0.90;0.47;;;;;;;;;;4980943;28;20172;-81
2022/03/25 14:44:44;;;;;;;0.50;0.50;;;;;;;;;;4980518;28;20561;-81
2022/03/25 14:47:10;;;;;;;0.22;0.22;;;;;;;;;;4980312;28;20046;-82
2022/03/25 14:49:36;;;;;;;0.50;0.40;;;;;;;;;;4980674;28;20511;-81
2022/03/25 14:52:06;;;;;;;0.10;0.10;;;;;;;;;;4982083;28;20918;-82
2022/03/25 14:54:33;;;;;;;0.75;0.20;;;;;;;;;;4981767;28;20049;-81
2022/03/25 14:57:00;;;;;;;0.40;0.40;;;;;;;;;;4977507;28;20125;-80
2022/03/25 14:59:27;;;;;;;0.17;0.17;;;;;;;;;;4980749;28;20029;-81
2022/03/25 15:01:53;;;;;;;0.30;0.30;;;;;;;;;;4980666;28;20586;-82